sensor_id;sensor_type;location;lat;lon;timestamp;pressure;altitude;pressure_sealevel;temperature;humidity
50356;BME280;36264;51.296;-0.602;2023-05-09T00:07:03;101056.78;;;20.72;78.68
50356;BME280;36264;51.296;-0.602;2023-05-09T00:09:29;101063.09;;;20.69;78.60
50356;BME280;36264;51.296;-0.602;2023-05-09T00:11:54;101069.34;;;20.68;78.84
50356;BME280;36264;51.296;-0.602;2023-05-09T00:14:20;101057.63;;;20.72;78.79
50356;BME280;36264;51.296;-0.602;2023-05-09T00:16:45;101060.56;;;20.80;78.56
50356;BME280;36264;51.296;-0.602;2023-05-09T00:19:11;101063.41;;;20.77;78.58
50356;BME280;36264;51.296;-0.602;2023-05-09T00:21:37;101066.47;;;20.71;78.45
50356;BME280;36264;51.296;-0.602;2023-05-09T00:24:02;101062.16;;;20.70;79.17
50356;BME280;36264;51.296;-0.602;2023-05-09T00:26:28;101047.06;;;20.72;78.99
50356;BME280;36264;51.296;-0.602;2023-05-09T00:28:53;101049.91;;;20.69;79.45
50356;BME280;36264;51.296;-0.602;2023-05-09T00:31:19;101033.75;;;20.74;79.07
50356;BME280;36264;51.296;-0.602;2023-05-09T00:33:44;101047.25;;;20.69;79.25
50356;BME280;36264;51.296;-0.602;2023-05-09T00:36:10;101045.34;;;20.71;79.23
50356;BME280;36264;51.296;-0.602;2023-05-09T00:38:35;101042.09;;;20.68;79.12
50356;BME280;36264;51.296;-0.602;2023-05-09T00:41:00;101038.72;;;20.78;78.96
50356;BME280;36264;51.296;-0.602;2023-05-09T00:43:26;101038.19;;;20.86;78.38
50356;BME280;36264;51.296;-0.602;2023-05-09T00:45:51;101037.34;;;20.86;78.05
50356;BME280;36264;51.296;-0.602;2023-05-09T00:48:17;101034.16;;;20.93;78.20
50356;BME280;36264;51.296;-0.602;2023-05-09T00:50:43;101043.69;;;20.83;78.51
50356;BME280;36264;51.296;-0.602;2023-05-09T00:53:08;101037.78;;;20.79;78.32
50356;BME280;36264;51.296;-0.602;2023-05-09T00:55:34;101027.44;;;20.76;78.64
50356;BME280;36264;51.296;-0.602;2023-05-09T00:58:01;101033.13;;;20.83;78.53
50356;BME280;36264;51.296;-0.602;2023-05-09T01:00:27;101027.94;;;20.81;78.97
50356;BME280;36264;51.296;-0.602;2023-05-09T01:02:54;101029.31;;;20.87;78.76
50356;BME280;36264;51.296;-0.602;2023-05-09T02:07:35;101009.88;;;20.88;77.13
50356;BME280;36264;51.296;-0.602;2023-05-09T02:10:02;101017.38;;;20.81;77.83
50356;BME280;36264;51.296;-0.602;2023-05-09T02:12:28;101003.03;;;20.73;77.63
50356;BME280;36264;51.296;-0.602;2023-05-09T02:14:53;101003.34;;;20.81;77.32
50356;BME280;36264;51.296;-0.602;2023-05-09T02:17:18;100996.78;;;20.87;77.11
50356;BME280;36264;51.296;-0.602;2023-05-09T02:19:45;100992.00;;;20.92;76.93
50356;BME280;36264;51.296;-0.602;2023-05-09T02:22:11;100985.34;;;20.99;76.78
50356;BME280;36264;51.296;-0.602;2023-05-09T02:24:37;100990.97;;;20.94;76.51
50356;BME280;36264;51.296;-0.602;2023-05-09T02:27:03;100990.59;;;21.12;76.08
50356;BME280;36264;51.296;-0.602;2023-05-09T02:29:50;100992.88;;;21.29;76.17
50356;BME280;36264;51.296;-0.602;2023-05-09T02:32:22;100994.69;;;21.29;76.14
50356;BME280;36264;51.296;-0.602;2023-05-09T02:34:51;100990.38;;;21.15;75.91
50356;BME280;36264;51.296;-0.602;2023-05-09T02:37:17;100992.00;;;21.05;76.37
50356;BME280;36264;51.296;-0.602;2023-05-09T02:39:43;100990.41;;;21.02;76.26
50356;BME280;36264;51.296;-0.602;2023-05-09T02:42:11;100995.06;;;21.11;76.36
50356;BME280;36264;51.296;-0.602;2023-05-09T02:44:37;100993.72;;;20.93;76.55
50356;BME280;36264;51.296;-0.602;2023-05-09T02:47:04;100999.81;;;21.06;76.66
50356;BME280;36264;51.296;-0.602;2023-05-09T02:49:30;101010.50;;;20.92;76.31
50356;BME280;36264;51.296;-0.602;2023-05-09T02:51:55;101001.63;;;20.93;76.62
50356;BME280;36264;51.296;-0.602;2023-05-09T02:54:20;100999.59;;;20.96;76.59
50356;BME280;36264;51.296;-0.602;2023-05-09T02:56:46;100998.44;;;21.01;76.41
50356;BME280;36264;51.296;-0.602;2023-05-09T02:59:11;100993.38;;;20.97;76.54
50356;BME280;36264;51.296;-0.602;2023-05-09T03:01:36;100992.78;;;20.94;76.77
50356;BME280;36264;51.296;-0.602;2023-05-09T03:04:02;101000.16;;;20.89;76.56
50356;BME280;36264;51.296;-0.602;2023-05-09T04:07:10;100972.06;;;20.36;75.15
50356;BME280;36264;51.296;-0.602;2023-05-09T04:09:35;100971.03;;;20.39;74.79
50356;BME280;36264;51.296;-0.602;2023-05-09T04:12:01;100965.66;;;20.40;74.57
50356;BME280;36264;51.296;-0.602;2023-05-09T04:14:26;100964.50;;;20.44;74.64
50356;BME280;36264;51.296;-0.602;2023-05-09T04:16:52;100958.16;;;20.47;74.82
50356;BME280;36264;51.296;-0.602;2023-05-09T04:19:17;100960.06;;;20.45;74.43
50356;BME280;36264;51.296;-0.602;2023-05-09T04:21:42;100966.94;;;20.48;74.47
50356;BME280;36264;51.296;-0.602;2023-05-09T04:24:08;100960.59;;;20.50;74.15
50356;BME280;36264;51.296;-0.602;2023-05-09T04:26:33;100963.13;;;20.52;74.27
50356;BME280;36264;51.296;-0.602;2023-05-09T04:29:02;100963.00;;;20.53;74.19
50356;BME280;36264;51.296;-0.602;2023-05-09T04:31:28;100957.72;;;20.53;74.87
50356;BME280;36264;51.296;-0.602;2023-05-09T04:33:53;100936.63;;;20.40;74.98
50356;BME280;36264;51.296;-0.602;2023-05-09T04:36:19;100957.22;;;20.35;75.54
50356;BME280;36264;51.296;-0.602;2023-05-09T04:38:45;100956.25;;;20.36;76.16
50356;BME280;36264;51.296;-0.602;2023-05-09T04:41:10;100953.75;;;20.48;75.42
50356;BME280;36264;51.296;-0.602;2023-05-09T04:43:36;100954.25;;;20.53;74.94
50356;BME280;36264;51.296;-0.602;2023-05-09T04:46:01;100955.09;;;20.53;74.77
50356;BME280;36264;51.296;-0.602;2023-05-09T04:48:26;100950.66;;;20.54;74.61
50356;BME280;36264;51.296;-0.602;2023-05-09T04:50:52;100938.63;;;20.50;74.53
50356;BME280;36264;51.296;-0.602;2023-05-09T04:53:17;100944.97;;;20.47;75.02
50356;BME280;36264;51.296;-0.602;2023-05-09T04:55:42;100941.19;;;20.51;74.95
50356;BME280;36264;51.296;-0.602;2023-05-09T04:58:08;100939.06;;;20.56;74.97
50356;BME280;36264;51.296;-0.602;2023-05-09T05:00:34;100936.00;;;20.50;74.46
50356;BME280;36264;51.296;-0.602;2023-05-09T05:02:59;100941.19;;;20.51;74.52
50356;BME280;36264;51.296;-0.602;2023-05-09T05:05:25;100936.72;;;20.52;74.56
50356;BME280;36264;51.296;-0.602;2023-05-09T06:07:19;100930.09;;;20.46;78.00
50356;BME280;36264;51.296;-0.602;2023-05-09T06:09:44;100936.09;;;20.48;77.81
50356;BME280;36264;51.296;-0.602;2023-05-09T06:12:10;100940.09;;;20.54;78.03
50356;BME280;36264;51.296;-0.602;2023-05-09T06:14:36;100927.78;;;20.29;79.02
50356;BME280;36264;51.296;-0.602;2023-05-09T06:17:01;100930.41;;;20.41;78.13
50356;BME280;36264;51.296;-0.602;2023-05-09T06:19:27;100922.28;;;20.44;78.44
50356;BME280;36264;51.296;-0.602;2023-05-09T06:21:52;100912.28;;;20.37;78.76
50356;BME280;36264;51.296;-0.602;2023-05-09T06:24:17;100910.47;;;20.37;78.31
50356;BME280;36264;51.296;-0.602;2023-05-09T06:26:43;100913.63;;;20.42;78.40
50356;BME280;36264;51.296;-0.602;2023-05-09T06:29:08;100911.44;;;20.49;78.13
50356;BME280;36264;51.296;-0.602;2023-05-09T06:31:35;100903.38;;;20.51;78.24
50356;BME280;36264;51.296;-0.602;2023-05-09T06:34:05;100909.19;;;20.56;78.50
50356;BME280;36264;51.296;-0.602;2023-05-09T06:36:30;100907.78;;;20.63;77.95
50356;BME280;36264;51.296;-0.602;2023-05-09T06:38:56;100907.16;;;20.59;78.42
50356;BME280;36264;51.296;-0.602;2023-05-09T06:41:22;100901.59;;;20.51;78.58
50356;BME280;36264;51.296;-0.602;2023-05-09T06:43:47;100903.50;;;20.49;78.46
50356;BME280;36264;51.296;-0.602;2023-05-09T06:46:12;100905.78;;;20.54;78.34
50356;BME280;36264;51.296;-0.602;2023-05-09T06:48:38;100898.09;;;20.63;77.95
50356;BME280;36264;51.296;-0.602;2023-05-09T06:51:03;100900.31;;;20.70;77.99
50356;BME280;36264;51.296;-0.602;2023-05-09T06:53:28;100903.69;;;20.59;78.56
50356;BME280;36264;51.296;-0.602;2023-05-09T06:55:54;100908.31;;;20.55;78.73
50356;BME280;36264;51.296;-0.602;2023-05-09T06:58:19;100910.34;;;20.52;78.93
50356;BME280;36264;51.296;-0.602;2023-05-09T07:00:45;100911.72;;;20.57;78.43
50356;BME280;36264;51.296;-0.602;2023-05-09T07:03:11;100896.84;;;20.56;78.59
50356;BME280;36264;51.296;-0.602;2023-05-09T07:05:37;100894.41;;;20.66;78.17
50356;BME280;36264;51.296;-0.602;2023-05-09T08:07:31;100895.31;;;21.15;76.96
50356;BME280;36264;51.296;-0.602;2023-05-09T08:09:56;100895.47;;;21.25;76.89
50356;BME280;36264;51.296;-0.602;2023-05-09T08:12:21;100904.16;;;21.14;77.16
50356;BME280;36264;51.296;-0.602;2023-05-09T08:14:47;100901.19;;;21.18;76.56
50356;BME280;36264;51.296;-0.602;2023-05-09T08:17:12;100900.75;;;21.25;76.52
50356;BME280;36264;51.296;-0.602;2023-05-09T08:19:38;100901.34;;;21.28;76.21
50356;BME280;36264;51.296;-0.602;2023-05-09T08:22:03;100904.97;;;21.27;76.48
50356;BME280;36264;51.296;-0.602;2023-05-09T08:24:28;100898.59;;;21.30;76.77
50356;BME280;36264;51.296;-0.602;2023-05-09T08:26:55;100903.78;;;21.31;76.48
50356;BME280;36264;51.296;-0.602;2023-05-09T08:29:21;100900.28;;;21.31;76.77
50356;BME280;36264;51.296;-0.602;2023-05-09T08:31:46;100908.28;;;21.18;76.84
50356;BME280;36264;51.296;-0.602;2023-05-09T08:34:11;100908.19;;;21.20;76.26
50356;BME280;36264;51.296;-0.602;2023-05-09T08:36:37;100902.44;;;21.26;76.06
50356;BME280;36264;51.296;-0.602;2023-05-09T08:39:03;100891.19;;;21.35;76.67
50356;BME280;36264;51.296;-0.602;2023-05-09T08:41:32;100907.91;;;21.71;76.15
50356;BME280;36264;51.296;-0.602;2023-05-09T08:44:00;100898.50;;;21.56;75.93
50356;BME280;36264;51.296;-0.602;2023-05-09T08:46:33;100901.06;;;21.68;75.53
50356;BME280;36264;51.296;-0.602;2023-05-09T08:49:00;100899.97;;;21.35;75.58
50356;BME280;36264;51.296;-0.602;2023-05-09T08:51:29;100892.88;;;21.36;74.67
50356;BME280;36264;51.296;-0.602;2023-05-09T08:53:56;100897.09;;;21.39;75.44
50356;BME280;36264;51.296;-0.602;2023-05-09T08:56:22;100896.09;;;21.52;74.74
50356;BME280;36264;51.296;-0.602;2023-05-09T08:58:48;100893.84;;;21.59;74.84
50356;BME280;36264;51.296;-0.602;2023-05-09T09:01:15;100890.25;;;21.60;74.26
50356;BME280;36264;51.296;-0.602;2023-05-09T09:03:42;100890.16;;;21.73;74.19
50356;BME280;36264;51.296;-0.602;2023-05-09T10:08:15;100835.00;;;22.59;69.44
50356;BME280;36264;51.296;-0.602;2023-05-09T10:10:41;100819.38;;;22.56;69.52
50356;BME280;36264;51.296;-0.602;2023-05-09T10:13:09;100825.84;;;22.74;67.94
50356;BME280;36264;51.296;-0.602;2023-05-09T10:15:35;100829.06;;;22.78;68.80
50356;BME280;36264;51.296;-0.602;2023-05-09T10:18:05;100827.97;;;22.80;68.36
50356;BME280;36264;51.296;-0.602;2023-05-09T10:20:33;100820.53;;;22.74;66.44
50356;BME280;36264;51.296;-0.602;2023-05-09T10:23:02;100811.03;;;22.72;66.21
50356;BME280;36264;51.296;-0.602;2023-05-09T10:25:42;100813.19;;;22.78;66.10
50356;BME280;36264;51.296;-0.602;2023-05-09T10:28:15;100810.03;;;22.84;66.90
50356;BME280;36264;51.296;-0.602;2023-05-09T10:31:21;100802.50;;;23.01;67.41
50356;BME280;36264;51.296;-0.602;2023-05-09T10:33:49;100804.69;;;22.95;68.29
50356;BME280;36264;51.296;-0.602;2023-05-09T10:36:16;100801.09;;;22.85;65.65
50356;BME280;36264;51.296;-0.602;2023-05-09T10:38:43;100795.75;;;22.96;67.48
50356;BME280;36264;51.296;-0.602;2023-05-09T10:41:12;100805.13;;;23.01;66.75
50356;BME280;36264;51.296;-0.602;2023-05-09T10:43:38;100801.47;;;22.80;67.12
50356;BME280;36264;51.296;-0.602;2023-05-09T10:46:04;100802.28;;;22.92;66.96
50356;BME280;36264;51.296;-0.602;2023-05-09T10:51:00;100796.03;;;22.93;67.35
50356;BME280;36264;51.296;-0.602;2023-05-09T10:53:47;100789.34;;;23.10;66.41
50356;BME280;36264;51.296;-0.602;2023-05-09T10:58:47;100793.41;;;22.82;67.68
50356;BME280;36264;51.296;-0.602;2023-05-09T11:01:12;100790.63;;;22.84;67.94
50356;BME280;36264;51.296;-0.602;2023-05-09T11:04:08;100785.16;;;23.08;67.10
50356;BME280;36264;51.296;-0.602;2023-05-09T12:06:03;100725.69;;;23.01;67.06
50356;BME280;36264;51.296;-0.602;2023-05-09T12:08:28;100749.94;;;23.17;66.51
50356;BME280;36264;51.296;-0.602;2023-05-09T12:10:54;100742.59;;;23.21;66.17
50356;BME280;36264;51.296;-0.602;2023-05-09T12:13:19;100755.97;;;23.19;65.18
50356;BME280;36264;51.296;-0.602;2023-05-09T12:15:45;100747.16;;;23.19;65.77
50356;BME280;36264;51.296;-0.602;2023-05-09T12:18:10;100747.16;;;23.19;65.67
50356;BME280;36264;51.296;-0.602;2023-05-09T12:20:43;100740.00;;;23.61;65.70
50356;BME280;36264;51.296;-0.602;2023-05-09T12:23:10;100740.56;;;23.34;65.44
50356;BME280;36264;51.296;-0.602;2023-05-09T12:25:36;100746.78;;;23.23;65.84
50356;BME280;36264;51.296;-0.602;2023-05-09T12:28:02;100733.91;;;23.19;65.87
50356;BME280;36264;51.296;-0.602;2023-05-09T12:30:28;100731.38;;;23.17;66.04
50356;BME280;36264;51.296;-0.602;2023-05-09T12:32:54;100733.47;;;23.13;65.59
50356;BME280;36264;51.296;-0.602;2023-05-09T12:35:20;100729.22;;;23.22;65.75
50356;BME280;36264;51.296;-0.602;2023-05-09T12:37:54;100725.69;;;23.43;65.31
50356;BME280;36264;51.296;-0.602;2023-05-09T12:40:21;100725.81;;;22.99;65.05
50356;BME280;36264;51.296;-0.602;2023-05-09T12:42:46;100729.28;;;23.00;65.82
50356;BME280;36264;51.296;-0.602;2023-05-09T12:45:12;100721.22;;;23.01;65.68
50356;BME280;36264;51.296;-0.602;2023-05-09T12:47:37;100730.84;;;23.02;65.79
50356;BME280;36264;51.296;-0.602;2023-05-09T12:50:04;100723.84;;;23.33;65.66
50356;BME280;36264;51.296;-0.602;2023-05-09T12:52:41;100717.13;;;23.60;65.26
50356;BME280;36264;51.296;-0.602;2023-05-09T12:55:12;100715.78;;;23.76;65.51
50356;BME280;36264;51.296;-0.602;2023-05-09T12:57:40;100712.69;;;24.01;61.86
50356;BME280;36264;51.296;-0.602;2023-05-09T13:00:08;100716.03;;;23.73;64.72
50356;BME280;36264;51.296;-0.602;2023-05-09T13:02:39;100715.13;;;23.83;64.31
50356;BME280;36264;51.296;-0.602;2023-05-09T13:05:09;100711.13;;;23.89;63.93
50356;BME280;36264;51.296;-0.602;2023-05-09T13:07:42;100711.25;;;23.87;62.08
50356;BME280;36264;51.296;-0.602;2023-05-09T13:10:25;100708.75;;;23.86;61.61
50356;BME280;36264;51.296;-0.602;2023-05-09T13:12:52;100705.50;;;23.51;64.08
50356;BME280;36264;51.296;-0.602;2023-05-09T13:15:19;100706.50;;;23.50;64.71
50356;BME280;36264;51.296;-0.602;2023-05-09T13:17:46;100699.13;;;23.33;65.20
50356;BME280;36264;51.296;-0.602;2023-05-09T13:20:12;100703.28;;;23.05;65.14
50356;BME280;36264;51.296;-0.602;2023-05-09T13:25:03;100693.78;;;23.02;64.92
50356;BME280;36264;51.296;-0.602;2023-05-09T13:27:29;100698.94;;;23.04;65.01
50356;BME280;36264;51.296;-0.602;2023-05-09T13:29:54;100697.75;;;22.96;64.55
50356;BME280;36264;51.296;-0.602;2023-05-09T13:32:19;100689.38;;;22.91;64.94
50356;BME280;36264;51.296;-0.602;2023-05-09T13:34:45;100691.19;;;22.91;64.80
50356;BME280;36264;51.296;-0.602;2023-05-09T13:37:10;100691.06;;;22.92;64.99
50356;BME280;36264;51.296;-0.602;2023-05-09T13:39:36;100697.06;;;22.94;65.07
50356;BME280;36264;51.296;-0.602;2023-05-09T13:42:01;100693.00;;;22.90;65.21
50356;BME280;36264;51.296;-0.602;2023-05-09T13:44:29;100693.28;;;22.76;65.00
50356;BME280;36264;51.296;-0.602;2023-05-09T13:46:54;100689.44;;;22.80;65.20
50356;BME280;36264;51.296;-0.602;2023-05-09T13:49:21;100693.00;;;22.90;65.49
50356;BME280;36264;51.296;-0.602;2023-05-09T13:51:47;100684.25;;;23.00;65.39
50356;BME280;36264;51.296;-0.602;2023-05-09T13:54:12;100680.97;;;23.07;65.75
50356;BME280;36264;51.296;-0.602;2023-05-09T13:56:39;100683.25;;;23.12;65.56
50356;BME280;36264;51.296;-0.602;2023-05-09T13:59:06;100693.38;;;23.07;65.90
50356;BME280;36264;51.296;-0.602;2023-05-09T14:01:31;100683.25;;;22.91;66.08
50356;BME280;36264;51.296;-0.602;2023-05-09T14:03:57;100681.75;;;22.98;65.90
50356;BME280;36264;51.296;-0.602;2023-05-09T15:08:26;100664.03;;;22.24;67.12
50356;BME280;36264;51.296;-0.602;2023-05-09T15:10:52;100667.50;;;22.36;66.90
50356;BME280;36264;51.296;-0.602;2023-05-09T15:13:17;100662.47;;;22.21;66.97
50356;BME280;36264;51.296;-0.602;2023-05-09T15:15:43;100657.09;;;22.12;67.60
50356;BME280;36264;51.296;-0.602;2023-05-09T15:18:08;100656.97;;;22.13;67.53
50356;BME280;36264;51.296;-0.602;2023-05-09T15:20:36;100650.59;;;22.04;68.06
50356;BME280;36264;51.296;-0.602;2023-05-09T15:23:01;100649.44;;;21.97;68.45
50356;BME280;36264;51.296;-0.602;2023-05-09T15:25:28;100654.50;;;21.89;68.95
50356;BME280;36264;51.296;-0.602;2023-05-09T15:27:53;100657.97;;;21.89;68.45
50356;BME280;36264;51.296;-0.602;2023-05-09T15:30:18;100656.28;;;21.88;69.05
50356;BME280;36264;51.296;-0.602;2023-05-09T15:32:44;100653.19;;;21.83;69.34
50356;BME280;36264;51.296;-0.602;2023-05-09T15:35:10;100660.88;;;21.75;70.27
50356;BME280;36264;51.296;-0.602;2023-05-09T15:37:35;100662.09;;;21.71;70.14
50356;BME280;36264;51.296;-0.602;2023-05-09T15:40:00;100674.59;;;21.58;71.83
50356;BME280;36264;51.296;-0.602;2023-05-09T15:42:26;100683.13;;;21.50;71.85
50356;BME280;36264;51.296;-0.602;2023-05-09T15:44:52;100686.72;;;21.49;72.46
50356;BME280;36264;51.296;-0.602;2023-05-09T15:47:17;100667.59;;;21.34;72.91
50356;BME280;36264;51.296;-0.602;2023-05-09T15:49:43;100686.31;;;21.42;72.81
50356;BME280;36264;51.296;-0.602;2023-05-09T15:52:08;100666.88;;;21.43;72.55
50356;BME280;36264;51.296;-0.602;2023-05-09T15:54:35;100671.34;;;21.65;72.15
50356;BME280;36264;51.296;-0.602;2023-05-09T15:57:01;100675.88;;;21.41;72.44
50356;BME280;36264;51.296;-0.602;2023-05-09T15:59:26;100664.28;;;21.55;72.71
50356;BME280;36264;51.296;-0.602;2023-05-09T16:01:53;100664.72;;;21.71;73.04
50356;BME280;36264;51.296;-0.602;2023-05-09T16:04:18;100653.81;;;21.64;72.43
50356;BME280;36264;51.296;-0.602;2023-05-09T17:08:47;100621.69;;;22.56;69.37
50356;BME280;36264;51.296;-0.602;2023-05-09T17:11:12;100637.75;;;22.43;68.95
50356;BME280;36264;51.296;-0.602;2023-05-09T17:13:39;100643.13;;;22.53;68.68
50356;BME280;36264;51.296;-0.602;2023-05-09T17:16:04;100645.25;;;22.27;69.32
50356;BME280;36264;51.296;-0.602;2023-05-09T17:18:31;100641.66;;;22.17;69.32
50356;BME280;36264;51.296;-0.602;2023-05-09T17:20:56;100645.44;;;22.14;69.03
50356;BME280;36264;51.296;-0.602;2023-05-09T17:23:22;100632.88;;;22.28;68.53
50356;BME280;36264;51.296;-0.602;2023-05-09T17:25:48;100631.28;;;21.93;67.47
50356;BME280;36264;51.296;-0.602;2023-05-09T17:28:14;100639.25;;;21.81;67.27
50356;BME280;36264;51.296;-0.602;2023-05-09T17:30:40;100637.25;;;21.51;64.12
50356;BME280;36264;51.296;-0.602;2023-05-09T17:33:05;100653.56;;;21.33;65.79
50356;BME280;36264;51.296;-0.602;2023-05-09T17:35:31;100647.06;;;21.15;66.54
50356;BME280;36264;51.296;-0.602;2023-05-09T17:37:57;100661.41;;;20.99;66.62
50356;BME280;36264;51.296;-0.602;2023-05-09T17:40:23;100667.44;;;21.02;67.28
50356;BME280;36264;51.296;-0.602;2023-05-09T17:42:48;100668.97;;;20.93;67.73
50356;BME280;36264;51.296;-0.602;2023-05-09T17:45:14;100667.28;;;20.92;67.75
50356;BME280;36264;51.296;-0.602;2023-05-09T17:47:40;100666.78;;;20.87;67.84
50356;BME280;36264;51.296;-0.602;2023-05-09T17:50:06;100672.56;;;20.92;68.11
50356;BME280;36264;51.296;-0.602;2023-05-09T17:52:32;100681.69;;;20.88;68.53
50356;BME280;36264;51.296;-0.602;2023-05-09T17:54:59;100683.72;;;20.84;68.10
50356;BME280;36264;51.296;-0.602;2023-05-09T17:57:24;100689.00;;;20.84;68.34
50356;BME280;36264;51.296;-0.602;2023-05-09T17:59:50;100685.97;;;20.77;68.07
50356;BME280;36264;51.296;-0.602;2023-05-09T18:02:15;100699.72;;;20.70;68.01
50356;BME280;36264;51.296;-0.602;2023-05-09T18:04:41;100699.88;;;20.68;68.42
50356;BME280;36264;51.296;-0.602;2023-05-09T19:06:39;100750.16;;;20.17;68.79
50356;BME280;36264;51.296;-0.602;2023-05-09T19:09:05;100742.13;;;20.18;68.90
50356;BME280;36264;51.296;-0.602;2023-05-09T19:11:30;100750.16;;;20.17;68.69
50356;BME280;36264;51.296;-0.602;2023-05-09T19:13:56;100751.84;;;20.18;68.79
50356;BME280;36264;51.296;-0.602;2023-05-09T19:16:22;100746.56;;;20.18;68.77
50356;BME280;36264;51.296;-0.602;2023-05-09T19:18:49;100750.78;;;20.20;68.73
50356;BME280;36264;51.296;-0.602;2023-05-09T19:21:14;100734.13;;;20.20;68.82
50356;BME280;36264;51.296;-0.602;2023-05-09T19:23:42;100732.19;;;20.22;69.00
50356;BME280;36264;51.296;-0.602;2023-05-09T19:26:11;100725.25;;;20.21;68.98
50356;BME280;36264;51.296;-0.602;2023-05-09T19:28:38;100720.00;;;20.21;69.10
50356;BME280;36264;51.296;-0.602;2023-05-09T19:31:04;100711.97;;;20.22;69.16
50356;BME280;36264;51.296;-0.602;2023-05-09T19:33:29;100706.38;;;20.14;69.54
50356;BME280;36264;51.296;-0.602;2023-05-09T19:35:55;100710.81;;;20.14;69.78
50356;BME280;36264;51.296;-0.602;2023-05-09T19:38:21;100715.16;;;20.15;69.62
50356;BME280;36264;51.296;-0.602;2023-05-09T19:40:46;100722.19;;;20.14;69.58
50356;BME280;36264;51.296;-0.602;2023-05-09T19:43:12;100723.16;;;20.13;69.19
50356;BME280;36264;51.296;-0.602;2023-05-09T19:45:38;100715.69;;;20.07;69.37
50356;BME280;36264;51.296;-0.602;2023-05-09T19:48:05;100719.72;;;20.00;69.43
50356;BME280;36264;51.296;-0.602;2023-05-09T19:50:31;100725.00;;;19.87;69.57
50356;BME280;36264;51.296;-0.602;2023-05-09T19:52:57;100733.69;;;19.89;69.44
50356;BME280;36264;51.296;-0.602;2023-05-09T19:55:23;100730.72;;;19.81;69.51
50356;BME280;36264;51.296;-0.602;2023-05-09T19:57:48;100737.69;;;19.82;69.75
50356;BME280;36264;51.296;-0.602;2023-05-09T20:00:14;100734.41;;;19.91;69.49
50356;BME280;36264;51.296;-0.602;2023-05-09T20:02:40;100734.22;;;19.81;69.50
50356;BME280;36264;51.296;-0.602;2023-05-09T20:05:06;100726.09;;;19.84;69.41
50356;BME280;36264;51.296;-0.602;2023-05-09T21:07:01;100777.31;;;19.01;70.81
50356;BME280;36264;51.296;-0.602;2023-05-09T21:09:26;100772.03;;;19.01;70.52
50356;BME280;36264;51.296;-0.602;2023-05-09T21:11:51;100772.59;;;19.07;70.45
50356;BME280;36264;51.296;-0.602;2023-05-09T21:14:17;100772.19;;;19.13;70.30
50356;BME280;36264;51.296;-0.602;2023-05-09T21:16:42;100769.88;;;19.21;70.06
50356;BME280;36264;51.296;-0.602;2023-05-09T21:19:08;100772.31;;;19.24;70.09
50356;BME280;36264;51.296;-0.602;2023-05-09T21:21:33;100772.31;;;19.24;70.04
50356;BME280;36264;51.296;-0.602;2023-05-09T21:24:00;100775.50;;;19.42;69.94
50356;BME280;36264;51.296;-0.602;2023-05-09T21:26:28;100774.94;;;19.24;69.98
50356;BME280;36264;51.296;-0.602;2023-05-09T21:28:54;100777.69;;;19.23;70.14
50356;BME280;36264;51.296;-0.602;2023-05-09T21:31:19;100778.53;;;19.23;70.05
50356;BME280;36264;51.296;-0.602;2023-05-09T21:33:44;100768.91;;;19.22;69.88
50356;BME280;36264;51.296;-0.602;2023-05-09T21:36:10;100775.56;;;19.28;69.80
50356;BME280;36264;51.296;-0.602;2023-05-09T21:38:35;100770.19;;;19.16;69.98
50356;BME280;36264;51.296;-0.602;2023-05-09T21:41:01;100767.66;;;19.15;69.75
50356;BME280;36264;51.296;-0.602;2023-05-09T21:43:26;100770.41;;;19.13;69.68
50356;BME280;36264;51.296;-0.602;2023-05-09T21:45:54;100775.56;;;19.28;69.38
50356;BME280;36264;51.296;-0.602;2023-05-09T21:48:19;100776.69;;;19.11;69.69
50356;BME280;36264;51.296;-0.602;2023-05-09T21:50:44;100777.88;;;19.07;69.38
50356;BME280;36264;51.296;-0.602;2023-05-09T21:53:13;100781.75;;;19.14;69.78
50356;BME280;36264;51.296;-0.602;2023-05-09T21:55:39;100782.94;;;19.10;69.26
50356;BME280;36264;51.296;-0.602;2023-05-09T21:58:05;100776.06;;;19.07;69.52
50356;BME280;36264;51.296;-0.602;2023-05-09T22:00:30;100783.03;;;19.08;69.43
50356;BME280;36264;51.296;-0.602;2023-05-09T22:02:57;100780.41;;;19.21;69.11
50356;BME280;36264;51.296;-0.602;2023-05-09T22:05:22;100782.78;;;18.98;69.26
50356;BME280;36264;51.296;-0.602;2023-05-09T23:08:25;100800.69;;;19.06;69.53
50356;BME280;36264;51.296;-0.602;2023-05-09T23:10:51;100805.47;;;19.27;68.95
50356;BME280;36264;51.296;-0.602;2023-05-09T23:13:16;100802.19;;;19.10;69.38
50356;BME280;36264;51.296;-0.602;2023-05-09T23:15:41;100809.06;;;19.13;69.35
50356;BME280;36264;51.296;-0.602;2023-05-09T23:18:07;100795.59;;;19.30;69.08
50356;BME280;36264;51.296;-0.602;2023-05-09T23:20:34;100804.13;;;19.34;69.05
50356;BME280;36264;51.296;-0.602;2023-05-09T23:22:59;100799.91;;;19.31;68.84
50356;BME280;36264;51.296;-0.602;2023-05-09T23:25:25;100808.19;;;19.12;69.77
50356;BME280;36264;51.296;-0.602;2023-05-09T23:27:50;100805.28;;;19.30;69.44
50356;BME280;36264;51.296;-0.602;2023-05-09T23:30:16;100801.06;;;19.27;69.38
50356;BME280;36264;51.296;-0.602;2023-05-09T23:32:41;100803.88;;;19.11;70.33
50356;BME280;36264;51.296;-0.602;2023-05-09T23:35:07;100799.97;;;19.17;69.95
50356;BME280;36264;51.296;-0.602;2023-05-09T23:37:32;100801.75;;;19.04;70.42
50356;BME280;36264;51.296;-0.602;2023-05-09T23:39:58;100794.59;;;19.06;70.23
50356;BME280;36264;51.296;-0.602;2023-05-09T23:42:23;100798.34;;;19.01;70.73
50356;BME280;36264;51.296;-0.602;2023-05-09T23:44:48;100798.59;;;18.98;70.83
50356;BME280;36264;51.296;-0.602;2023-05-09T23:47:14;100802.88;;;18.99;70.87
50356;BME280;36264;51.296;-0.602;2023-05-09T23:49:40;100797.97;;;19.08;71.00
50356;BME280;36264;51.296;-0.602;2023-05-09T23:52:05;100804.50;;;19.02;70.72
50356;BME280;36264;51.296;-0.602;2023-05-09T23:54:31;100799.31;;;19.00;71.30
50356;BME280;36264;51.296;-0.602;2023-05-09T23:56:56;100801.09;;;19.00;71.72